createdAt,value
2018-12-24T00:02:01.532Z,1.45
2018-12-24T00:04:31.680Z,1.20
2018-12-24T00:07:02.180Z,0.90
2018-12-24T00:09:32.315Z,0.80
2018-12-24T00:12:07.086Z,0.80
2018-12-24T00:14:34.338Z,1.42
2018-12-24T00:17:04.523Z,0.98
2018-12-24T00:19:35.758Z,0.95
2018-12-24T00:22:05.922Z,0.65
2018-12-24T00:24:36.169Z,0.72
2018-12-24T00:27:06.354Z,0.82
2018-12-24T00:29:36.736Z,0.85
2018-12-24T00:32:07.296Z,0.70
2018-12-24T00:34:37.460Z,1.70
2018-12-24T00:37:07.840Z,0.40
2018-12-24T00:39:37.973Z,2.50
2018-12-24T00:42:15.618Z,1.00
2018-12-24T00:44:40.751Z,1.25
2018-12-24T00:47:10.903Z,1.03
2018-12-24T00:49:41.060Z,1.10
2018-12-24T00:52:11.265Z,1.30
2018-12-24T00:54:41.409Z,0.95
2018-12-24T00:57:11.533Z,1.15
2018-12-24T00:59:41.687Z,1.22
2018-12-24T01:02:11.803Z,1.12
2018-12-24T01:04:42.213Z,0.82
2018-12-24T01:07:12.622Z,1.30
2018-12-24T01:09:43.738Z,1.40
2018-12-24T01:12:13.911Z,2.70
2018-12-24T01:14:44.341Z,1.40
2018-12-24T01:17:14.482Z,1.20
2018-12-24T01:19:44.620Z,1.40
2018-12-24T01:22:14.806Z,1.37
2018-12-24T01:24:44.963Z,1.60
2018-12-24T01:27:15.201Z,1.22
2018-12-24T01:29:45.370Z,1.47
2018-12-24T01:32:15.611Z,1.50
2018-12-24T01:34:45.981Z,1.42
2018-12-24T01:37:16.168Z,1.35
2018-12-24T01:39:46.538Z,1.40
2018-12-24T01:42:16.743Z,1.40
2018-12-24T01:44:46.810Z,1.40
2018-12-24T01:47:17.004Z,1.07
2018-12-24T01:49:47.283Z,1.32
2018-12-24T01:52:17.710Z,1.22
2018-12-24T01:54:47.863Z,1.20
2018-12-24T01:57:18.626Z,1.30
2018-12-24T01:59:48.871Z,1.47
2018-12-24T02:02:19.108Z,1.75
2018-12-24T02:04:49.564Z,0.70
2018-12-24T02:07:19.755Z,0.93
2018-12-24T02:09:49.878Z,0.85
2018-12-24T02:12:20.131Z,0.82
2018-12-24T02:14:50.262Z,0.90
2018-12-24T02:17:20.668Z,0.80
2018-12-24T02:19:50.809Z,0.90
2018-12-24T02:22:21.003Z,0.98
2018-12-24T02:24:51.131Z,0.82
2018-12-24T02:27:21.246Z,1.17
2018-12-24T02:29:51.520Z,0.80
2018-12-24T02:32:21.675Z,1.00
2018-12-24T02:34:51.793Z,1.05
2018-12-24T02:37:21.901Z,0.80
2018-12-24T02:39:52.055Z,0.80
2018-12-24T02:42:22.438Z,0.90
2018-12-24T02:44:52.558Z,1.15
2018-12-24T02:47:22.722Z,0.80
2018-12-24T02:49:52.840Z,0.57
2018-12-24T02:52:23.068Z,0.50
2018-12-24T02:54:53.269Z,0.60
2018-12-24T02:57:23.422Z,0.60
2018-12-24T02:59:53.540Z,0.75
2018-12-24T03:02:23.650Z,0.70
2018-12-24T03:04:53.797Z,0.90
2018-12-24T03:07:24.265Z,0.57
2018-12-24T03:09:54.386Z,0.85
2018-12-24T03:12:24.543Z,0.70
2018-12-24T03:14:54.722Z,0.55
2018-12-24T03:17:24.844Z,0.65
2018-12-24T03:19:54.971Z,0.90
2018-12-24T03:22:25.077Z,0.62
2018-12-24T03:24:55.228Z,0.62
2018-12-24T03:27:25.380Z,0.90
2018-12-24T03:29:55.516Z,0.90
2018-12-24T03:32:25.840Z,0.70
2018-12-24T03:34:56.102Z,1.00
2018-12-24T03:37:26.201Z,1.25
2018-12-24T03:39:56.426Z,1.00
2018-12-24T03:42:26.539Z,1.12
2018-12-24T03:44:56.794Z,1.15
2018-12-24T03:47:26.979Z,0.90
2018-12-24T03:49:57.101Z,0.95
2018-12-24T03:52:27.528Z,0.95
2018-12-24T03:54:57.651Z,0.72
2018-12-24T03:57:27.790Z,1.07
2018-12-24T03:59:57.933Z,1.07
2018-12-24T04:02:29.160Z,1.05
2018-12-24T04:04:59.275Z,0.82
2018-12-24T04:07:29.418Z,0.80
2018-12-24T04:10:00.489Z,0.88
2018-12-24T04:12:30.685Z,0.88
2018-12-24T04:15:00.819Z,1.00
2018-12-24T04:17:31.247Z,0.90
2018-12-24T04:20:01.425Z,0.80
2018-12-24T04:22:31.585Z,0.80
2018-12-24T04:25:01.719Z,0.53
2018-12-24T04:27:41.419Z,0.60
2018-12-24T04:30:03.801Z,0.40
2018-12-24T04:32:34.023Z,0.30
2018-12-24T04:35:04.188Z,0.57
2018-12-24T04:37:34.602Z,0.20
2018-12-24T04:40:04.693Z,0.23
2018-12-24T04:42:35.098Z,0.23
2018-12-24T04:45:05.249Z,0.20
2018-12-24T04:47:35.427Z,0.10
2018-12-24T04:50:05.660Z,0.20
2018-12-24T04:52:36.122Z,0.17
2018-12-24T04:55:06.310Z,0.10
2018-12-24T04:57:36.647Z,0.20
2018-12-24T05:02:48.832Z,0.20
2018-12-24T05:05:18.942Z,0.20
2018-12-24T05:07:49.071Z,0.20
2018-12-24T05:10:19.236Z,0.25
2018-12-24T05:12:49.379Z,0.13
2018-12-24T05:15:19.549Z,1.37
2018-12-24T05:17:49.725Z,0.25
2018-12-24T05:20:19.987Z,0.20
2018-12-24T05:22:50.058Z,0.13
2018-12-24T05:25:20.447Z,2.00
2018-12-24T05:27:50.616Z,0.20
2018-12-24T05:30:20.765Z,0.35
2018-12-24T05:32:50.857Z,0.20
2018-12-24T05:35:21.256Z,0.40
2018-12-24T05:37:51.922Z,0.28
2018-12-24T05:40:22.086Z,0.20
2018-12-24T05:42:52.219Z,0.42
2018-12-24T05:45:22.381Z,0.10
2018-12-24T05:47:52.491Z,0.28
2018-12-24T05:50:22.600Z,0.30
2018-12-24T05:52:53.018Z,0.60
2018-12-24T05:55:23.146Z,0.33
2018-12-24T05:57:53.307Z,0.60
2018-12-24T06:00:23.652Z,0.30
2018-12-24T06:02:53.783Z,0.30
2018-12-24T06:05:23.872Z,0.60
2018-12-24T06:07:53.961Z,0.50
2018-12-24T06:10:24.083Z,1.70
2018-12-24T06:12:54.198Z,0.50
2018-12-24T06:15:24.324Z,0.60
2018-12-24T06:17:54.431Z,0.70
2018-12-24T06:20:24.624Z,0.70
2018-12-24T06:22:54.760Z,0.90
2018-12-24T06:25:25.409Z,0.93
2018-12-24T06:27:55.653Z,0.80
2018-12-24T06:30:26.036Z,1.30
2018-12-24T06:32:56.164Z,3.37
2018-12-24T06:35:26.570Z,1.30
2018-12-24T06:37:56.799Z,1.50
2018-12-24T06:40:27.100Z,1.70
2018-12-24T06:42:58.334Z,1.50
2018-12-24T06:45:28.433Z,1.00
2018-12-24T06:47:58.607Z,1.10
2018-12-24T06:50:28.726Z,0.98
2018-12-24T06:52:58.900Z,0.90
2018-12-24T06:55:29.009Z,1.20
2018-12-24T06:57:59.144Z,1.30
2018-12-24T07:00:29.240Z,1.00
2018-12-24T07:02:59.422Z,1.35
2018-12-24T07:05:30.025Z,1.10
2018-12-24T07:08:00.130Z,1.15
2018-12-24T07:10:30.281Z,1.40
2018-12-24T07:13:00.538Z,1.20
2018-12-24T07:15:30.646Z,1.10
2018-12-24T07:18:01.018Z,1.10
2018-12-24T07:20:31.382Z,1.33
2018-12-24T07:23:01.525Z,1.60
2018-12-24T07:25:31.663Z,1.82
2018-12-24T07:28:02.123Z,1.55
2018-12-24T07:30:32.227Z,1.50
2018-12-24T07:33:02.353Z,2.00
2018-12-24T07:35:32.488Z,1.82
2018-12-24T07:38:03.200Z,2.20
2018-12-24T07:40:33.354Z,2.10
2018-12-24T07:43:03.716Z,1.80
2018-12-24T07:45:33.861Z,1.80
2018-12-24T07:48:03.985Z,1.70
2018-12-24T07:50:34.152Z,3.45
2018-12-24T07:53:04.608Z,3.20
2018-12-24T07:55:35.321Z,2.20
2018-12-24T07:58:05.856Z,2.40
2018-12-24T08:00:36.329Z,2.20
2018-12-24T08:03:06.556Z,3.30
2018-12-24T08:05:36.759Z,2.60
2018-12-24T08:08:08.616Z,2.10
2018-12-24T08:10:38.731Z,1.98
2018-12-24T08:13:09.196Z,2.00
2018-12-24T08:15:40.701Z,2.85
2018-12-24T08:18:10.859Z,2.02
2018-12-24T08:20:41.060Z,1.90
2018-12-24T08:23:11.470Z,1.75
2018-12-24T08:25:41.583Z,1.80
2018-12-24T08:28:11.781Z,1.73
2018-12-24T08:30:42.464Z,2.12
2018-12-24T08:33:12.865Z,2.00
2018-12-24T08:35:42.961Z,2.40
2018-12-24T08:38:13.085Z,2.15
2018-12-24T08:40:43.190Z,2.30
2018-12-24T08:43:14.115Z,2.98
2018-12-24T08:45:44.233Z,2.40
2018-12-24T08:48:14.728Z,2.55
2018-12-24T08:50:50.625Z,2.83
2018-12-24T08:53:20.752Z,3.20
2018-12-24T08:55:51.451Z,3.15
2018-12-24T08:58:22.408Z,4.00
2018-12-24T09:00:52.540Z,3.83
2018-12-24T09:03:22.681Z,3.60
2018-12-24T09:05:52.783Z,3.37
2018-12-24T09:08:23.217Z,4.75
2018-12-24T09:10:59.333Z,8.00
2018-12-24T09:13:29.475Z,5.28
2018-12-24T09:15:59.825Z,3.95
2018-12-24T09:18:30.373Z,5.25
2018-12-24T09:21:00.458Z,4.92
2018-12-24T09:23:30.648Z,5.00
2018-12-24T09:26:01.051Z,4.12
2018-12-24T09:28:31.312Z,5.50
2018-12-24T09:31:01.410Z,4.42
2018-12-24T09:33:31.540Z,10.08
2018-12-24T09:36:01.668Z,5.50
2018-12-24T09:38:31.803Z,4.28
2018-12-24T09:41:02.178Z,4.25
2018-12-24T09:43:32.290Z,3.75
2018-12-24T09:46:02.398Z,3.25
2018-12-24T09:48:33.020Z,2.72
2018-12-24T09:51:03.496Z,3.62
2018-12-24T09:53:33.609Z,2.83
2018-12-24T09:56:03.754Z,2.35
2018-12-24T09:58:33.890Z,3.10
2018-12-24T10:01:04.083Z,3.15
2018-12-24T10:03:39.488Z,2.98
2018-12-24T10:06:16.644Z,3.50
2018-12-24T10:08:47.481Z,3.58
2018-12-24T10:11:17.674Z,3.70
2018-12-24T10:13:47.903Z,4.08
2018-12-24T10:16:18.275Z,3.83
2018-12-24T10:18:48.931Z,4.17
2018-12-24T10:21:19.413Z,4.05
2018-12-24T10:23:50.262Z,3.60
2018-12-24T10:26:21.353Z,4.33
2018-12-24T10:28:51.818Z,4.05
2018-12-24T10:31:21.963Z,3.20
2018-12-24T10:33:52.095Z,4.10
2018-12-24T10:36:22.243Z,3.52
2018-12-24T10:38:52.378Z,3.20
2018-12-24T10:41:25.480Z,3.67
2018-12-24T10:43:55.719Z,2.58
2018-12-24T10:46:25.843Z,3.02
2018-12-24T10:48:56.252Z,2.45
2018-12-24T10:51:26.698Z,2.20
2018-12-24T10:53:57.172Z,2.58
2018-12-24T10:56:27.383Z,2.70
2018-12-24T10:58:57.522Z,3.00
2018-12-24T11:01:27.972Z,3.20
2018-12-24T11:03:58.092Z,3.33
2018-12-24T11:06:29.445Z,3.50
2018-12-24T11:08:59.646Z,3.58
2018-12-24T11:11:31.249Z,4.10
2018-12-24T11:14:01.742Z,4.43
2018-12-24T11:16:31.861Z,3.80
2018-12-24T11:19:01.991Z,3.45
2018-12-24T11:21:32.097Z,6.45
2018-12-24T11:24:02.741Z,5.83
2018-12-24T11:26:33.135Z,3.80
2018-12-24T11:29:04.217Z,4.35
2018-12-24T11:31:34.352Z,4.20
2018-12-24T11:34:05.550Z,4.00
2018-12-24T11:36:35.659Z,4.22
2018-12-24T11:39:06.915Z,4.12
2018-12-24T11:41:37.471Z,4.28
2018-12-24T11:44:07.679Z,3.73
2018-12-24T11:46:38.194Z,3.45
2018-12-24T11:49:08.369Z,2.90
2018-12-24T11:51:38.644Z,2.60
2018-12-24T11:54:08.737Z,2.37
2018-12-24T11:56:38.818Z,2.50
2018-12-24T11:59:09.164Z,2.10
2018-12-24T12:01:39.293Z,2.40
2018-12-24T12:04:09.744Z,1.95
2018-12-24T12:06:39.874Z,2.45
2018-12-24T12:09:10.031Z,2.27
2018-12-24T12:11:40.210Z,2.17
2018-12-24T12:14:10.633Z,2.37
2018-12-24T12:16:40.717Z,2.27
2018-12-24T12:19:10.816Z,1.87
2018-12-24T12:21:41.144Z,2.20
2018-12-24T12:24:11.252Z,2.37
2018-12-24T12:26:41.390Z,2.40
2018-12-24T12:29:11.461Z,4.10
2018-12-24T12:31:41.973Z,3.58
2018-12-24T12:34:17.329Z,2.87
2018-12-24T12:36:47.433Z,5.28
2018-12-24T12:39:18.574Z,3.10
2018-12-24T12:41:49.715Z,2.75
2018-12-24T12:44:20.481Z,3.75
2018-12-24T12:46:50.868Z,2.95
2018-12-24T12:49:20.994Z,2.58
2018-12-24T12:51:51.363Z,2.93
2018-12-24T12:54:21.495Z,2.37
2018-12-24T12:56:51.922Z,3.17
2018-12-24T12:59:22.040Z,2.40
2018-12-24T13:01:52.488Z,2.30
2018-12-24T13:04:22.874Z,2.52
2018-12-24T13:06:53.260Z,2.20
2018-12-24T13:09:23.389Z,2.10
2018-12-24T13:11:53.551Z,2.35
2018-12-24T13:14:23.696Z,1.97
2018-12-24T13:16:54.188Z,2.63
2018-12-24T13:19:25.253Z,2.75
2018-12-24T13:21:55.333Z,3.05
2018-12-24T13:24:25.701Z,2.33
2018-12-24T13:26:57.685Z,2.47
2018-12-24T13:29:28.011Z,2.22
2018-12-24T13:31:58.391Z,3.58
2018-12-24T13:34:28.523Z,2.33
2018-12-24T13:36:58.675Z,3.27
2018-12-24T13:39:29.316Z,2.55
2018-12-24T13:42:00.405Z,2.62
2018-12-24T13:44:30.579Z,2.90
2018-12-24T13:47:00.686Z,2.47
2018-12-24T13:49:30.781Z,2.47
2018-12-24T13:52:00.943Z,2.65
2018-12-24T13:54:31.027Z,2.73
2018-12-24T13:57:01.203Z,2.85
2018-12-24T13:59:31.429Z,2.60
2018-12-24T14:02:01.688Z,2.87
2018-12-24T14:04:31.760Z,2.40
2018-12-24T14:07:02.249Z,2.33
2018-12-24T14:09:32.495Z,2.10
2018-12-24T14:12:03.164Z,2.92
2018-12-24T14:14:33.558Z,3.70
2018-12-24T14:17:03.675Z,3.25
2018-12-24T14:19:34.436Z,3.08
2018-12-24T14:22:04.835Z,2.58
2018-12-24T14:24:34.983Z,2.65
2018-12-24T14:27:05.096Z,2.83
2018-12-24T14:29:37.385Z,2.65
2018-12-24T14:32:07.819Z,2.00
2018-12-24T14:34:38.009Z,2.20
2018-12-24T14:37:08.190Z,2.20
2018-12-24T14:39:38.326Z,2.02
2018-12-24T14:42:08.558Z,2.37
2018-12-24T14:44:39.190Z,2.40
2018-12-24T14:47:09.317Z,2.50
2018-12-24T14:49:39.483Z,3.13
2018-12-24T14:52:09.634Z,2.70
2018-12-24T14:54:39.760Z,3.70
2018-12-24T14:57:10.182Z,3.40
2018-12-24T14:59:40.898Z,3.90
2018-12-24T15:02:11.500Z,7.03
2018-12-24T15:04:41.898Z,3.90
2018-12-24T15:07:12.502Z,3.95
2018-12-24T15:09:42.610Z,5.37
2018-12-24T15:12:13.049Z,8.48
2018-12-24T15:14:43.188Z,7.12
2018-12-24T15:17:13.311Z,6.83
2018-12-24T15:19:43.406Z,7.17
2018-12-24T15:22:13.544Z,4.77
2018-12-24T15:24:43.698Z,5.50
2018-12-24T15:27:14.196Z,6.93
2018-12-24T15:29:45.634Z,5.97
2018-12-24T15:32:15.786Z,5.40
2018-12-24T15:34:45.895Z,5.87
2018-12-24T15:37:16.274Z,16.32
2018-12-24T15:39:46.492Z,16.40
2018-12-24T15:42:16.737Z,13.22
2018-12-24T15:44:46.936Z,7.60
2018-12-24T15:47:17.300Z,6.50
2018-12-24T15:49:47.417Z,5.95
2018-12-24T15:52:17.815Z,10.05
2018-12-24T15:54:47.978Z,5.57
2018-12-24T15:57:18.441Z,5.57
2018-12-24T15:59:48.562Z,7.00
2018-12-24T16:02:18.736Z,7.20
2018-12-24T16:04:49.859Z,6.33
2018-12-24T16:07:20.025Z,6.40
2018-12-24T16:09:50.245Z,6.47
2018-12-24T16:12:20.644Z,8.17
2018-12-24T16:14:50.767Z,8.63
2018-12-24T16:17:20.935Z,7.67
2018-12-24T16:19:51.024Z,7.17
2018-12-24T16:22:21.444Z,6.90
2018-12-24T16:24:52.767Z,13.95
2018-12-24T16:27:23.167Z,10.30
2018-12-24T16:29:53.278Z,13.78
2018-12-24T16:32:23.477Z,6.93
2018-12-24T16:34:56.345Z,8.53
2018-12-24T16:37:26.545Z,7.62
2018-12-24T16:39:57.263Z,17.23
2018-12-24T16:42:28.553Z,11.00
2018-12-24T16:45:03.346Z,9.33
2018-12-24T16:47:33.814Z,11.35
2018-12-24T16:50:04.567Z,9.45
2018-12-24T16:52:34.674Z,8.90
2018-12-24T16:55:04.818Z,8.58
2018-12-24T16:57:35.200Z,10.13
2018-12-24T17:00:06.343Z,9.33
2018-12-24T17:02:36.801Z,9.20
2018-12-24T17:05:06.975Z,9.40
2018-12-24T17:07:37.625Z,10.32
2018-12-24T17:10:09.797Z,7.40
2018-12-24T17:12:40.005Z,9.10
2018-12-24T17:15:10.668Z,10.15
2018-12-24T17:17:41.965Z,8.63
2018-12-24T17:20:12.288Z,8.20
2018-12-24T17:22:42.723Z,8.48
2018-12-24T17:25:14.111Z,9.20
2018-12-24T17:27:45.240Z,8.50
2018-12-24T17:30:15.571Z,7.85
2018-12-24T17:32:45.731Z,8.90
2018-12-24T17:35:17.238Z,9.80
2018-12-24T17:37:47.713Z,8.30
2018-12-24T17:40:17.928Z,9.30
2018-12-24T17:42:48.042Z,10.37
2018-12-24T17:45:21.130Z,9.70
2018-12-24T17:47:55.662Z,9.90
2018-12-24T17:50:26.292Z,8.67
2018-12-24T17:52:56.440Z,8.93
2018-12-24T17:55:26.601Z,10.83
2018-12-24T17:57:57.021Z,15.30
2018-12-24T18:00:28.108Z,13.10
2018-12-24T18:02:58.907Z,11.00
2018-12-24T18:05:29.527Z,8.63
2018-12-24T18:07:59.938Z,7.90
2018-12-24T18:10:30.094Z,7.33
2018-12-24T18:13:00.223Z,7.83
2018-12-24T18:15:30.350Z,8.60
2018-12-24T18:18:05.279Z,7.75
2018-12-24T18:20:35.451Z,7.33
2018-12-24T18:23:05.604Z,7.17
2018-12-24T18:25:36.317Z,8.55
2018-12-24T18:28:07.075Z,7.70
2018-12-24T18:30:37.212Z,8.05
2018-12-24T18:33:07.343Z,7.50
2018-12-24T18:35:38.141Z,7.73
2018-12-24T18:38:08.342Z,7.47
2018-12-24T18:40:38.589Z,6.60
2018-12-24T18:43:08.820Z,6.87
2018-12-24T18:45:39.026Z,7.43
2018-12-24T18:48:09.168Z,5.67
2018-12-24T18:50:39.497Z,6.70
2018-12-24T18:53:10.400Z,7.15
2018-12-24T18:55:40.690Z,7.78
2018-12-24T18:58:10.872Z,6.87
2018-12-24T19:00:41.088Z,6.97
2018-12-24T19:03:12.258Z,6.60
2018-12-24T19:05:42.562Z,8.57
2018-12-24T19:08:12.960Z,6.83
2018-12-24T19:10:43.499Z,7.65
2018-12-24T19:13:13.633Z,7.47
2018-12-24T19:15:44.079Z,5.92
2018-12-24T19:18:14.555Z,5.87
2018-12-24T19:20:44.733Z,6.35
2018-12-24T19:23:15.351Z,5.17
2018-12-24T19:25:45.608Z,4.90
2018-12-24T19:28:15.735Z,5.70
2018-12-24T19:30:45.973Z,4.97
2018-12-24T19:33:16.179Z,5.33
2018-12-24T19:35:46.404Z,5.40
2018-12-24T19:38:16.928Z,6.00
2018-12-24T19:40:47.072Z,6.70
2018-12-24T19:43:17.309Z,5.85
2018-12-24T19:45:47.442Z,6.03
2018-12-24T19:48:17.603Z,6.17
2018-12-24T19:50:48.086Z,6.15
2018-12-24T19:53:18.189Z,5.43
2018-12-24T19:55:48.583Z,4.43
2018-12-24T19:58:19.093Z,4.75
2018-12-24T20:00:51.254Z,5.28
2018-12-24T20:03:21.436Z,5.23
2018-12-24T20:05:51.575Z,5.70
2018-12-24T20:08:21.898Z,5.53
2018-12-24T20:10:52.336Z,6.25
2018-12-24T20:13:22.530Z,5.77
2018-12-24T20:15:52.944Z,6.07
2018-12-24T20:18:23.044Z,6.57
2018-12-24T20:20:53.345Z,5.67
2018-12-24T20:23:23.545Z,5.27
2018-12-24T20:25:53.716Z,5.90
2018-12-24T20:28:24.265Z,5.40
2018-12-24T20:30:54.440Z,5.73
2018-12-24T20:33:24.547Z,5.95
2018-12-24T20:35:54.691Z,5.37
2018-12-24T20:38:25.194Z,5.87
2018-12-24T20:40:55.350Z,5.63
2018-12-24T20:43:26.109Z,6.45
2018-12-24T20:45:56.365Z,6.50
2018-12-24T20:48:26.716Z,6.73
2018-12-24T20:50:57.152Z,6.80
2018-12-24T20:53:27.617Z,7.00
2018-12-24T20:55:58.054Z,6.22
2018-12-24T20:58:28.179Z,6.30
2018-12-24T21:00:58.307Z,5.95
2018-12-24T21:03:28.490Z,5.65
2018-12-24T21:05:58.604Z,6.10
2018-12-24T21:08:28.816Z,6.20
2018-12-24T21:10:59.073Z,6.35
2018-12-24T21:13:29.203Z,6.45
2018-12-24T21:15:59.432Z,7.30
2018-12-24T21:18:29.810Z,5.57
2018-12-24T21:21:00.257Z,6.83
2018-12-24T21:23:30.491Z,5.67
2018-12-24T21:26:00.762Z,5.87
2018-12-24T21:28:30.922Z,5.78
2018-12-24T21:31:01.315Z,5.50
2018-12-24T21:33:31.845Z,4.77
2018-12-24T21:36:02.246Z,5.43
2018-12-24T21:38:32.365Z,4.63
2018-12-24T21:41:02.672Z,4.95
2018-12-24T21:43:32.872Z,4.67
2018-12-24T21:46:03.033Z,5.63
2018-12-24T21:48:33.281Z,4.47
2018-12-24T21:51:03.385Z,4.37
2018-12-24T21:53:33.522Z,4.20
2018-12-24T21:56:04.002Z,4.17
2018-12-24T21:58:40.097Z,3.70
2018-12-24T22:01:11.802Z,4.67
2018-12-24T22:03:41.922Z,4.07
2018-12-24T22:06:12.614Z,3.97
2018-12-24T22:08:43.064Z,4.50
2018-12-24T22:11:13.231Z,4.93
2018-12-24T22:13:44.085Z,5.50
2018-12-24T22:16:14.597Z,4.92
2018-12-24T22:18:44.684Z,4.30
2018-12-24T22:21:14.811Z,4.53
2018-12-24T22:23:45.006Z,4.90
2018-12-24T22:26:15.133Z,5.55
2018-12-24T22:28:45.282Z,5.97
2018-12-24T22:31:15.568Z,4.97
2018-12-24T22:33:46.027Z,4.10
2018-12-24T22:36:16.720Z,5.15
2018-12-24T22:38:46.853Z,4.97
2018-12-24T22:41:16.991Z,4.47
2018-12-24T22:43:48.199Z,7.03
2018-12-24T22:46:20.615Z,4.25
2018-12-24T22:48:51.732Z,4.57
2018-12-24T22:51:21.880Z,3.87
2018-12-24T22:53:52.365Z,4.75
2018-12-24T22:56:22.518Z,3.80
2018-12-24T22:58:52.953Z,3.80
2018-12-24T23:01:24.608Z,4.10
2018-12-24T23:03:55.156Z,4.75
2018-12-24T23:06:25.306Z,4.05
2018-12-24T23:08:57.057Z,4.25
2018-12-24T23:11:27.202Z,4.60
2018-12-24T23:13:59.029Z,4.15
2018-12-24T23:16:29.465Z,5.33
2018-12-24T23:18:59.917Z,4.10
2018-12-24T23:21:30.361Z,4.22
2018-12-24T23:24:01.930Z,3.95
2018-12-24T23:26:32.162Z,3.65
2018-12-24T23:29:02.333Z,4.07
2018-12-24T23:31:32.782Z,5.67
2018-12-24T23:34:03.108Z,4.70
2018-12-24T23:36:34.216Z,4.62
2018-12-24T23:39:05.316Z,4.53
2018-12-24T23:41:36.824Z,5.33
2018-12-24T23:44:07.049Z,3.22
2018-12-24T23:46:37.192Z,4.62
2018-12-24T23:49:07.400Z,3.83
2018-12-24T23:51:37.791Z,5.30
2018-12-24T23:54:07.947Z,4.67
2018-12-24T23:56:39.438Z,4.20
2018-12-24T23:59:09.580Z,4.67
